sensor_id;sensor_type;location;lat;lon;timestamp;temperature;humidity
13091;DHT22;6611;52.604;13.438;2023-01-29T00:01:10;0.97;74.03
13091;DHT22;6611;52.604;13.438;2023-01-29T00:06:13;1.07;74.09
13091;DHT22;6611;52.604;13.438;2023-01-29T00:11:15;1.01;73.90
13091;DHT22;6611;52.604;13.438;2023-01-29T00:16:17;0.97;74.75
13091;DHT22;6611;52.604;13.438;2023-01-29T00:21:21;0.92;74.79
13091;DHT22;6611;52.604;13.438;2023-01-29T00:26:23;1.03;74.33
13091;DHT22;6611;52.604;13.438;2023-01-29T00:31:26;1.01;74.67
13091;DHT22;6611;52.604;13.438;2023-01-29T00:36:29;1.01;74.49
13091;DHT22;6611;52.604;13.438;2023-01-29T00:41:31;1.01;74.91
13091;DHT22;6611;52.604;13.438;2023-01-29T00:46:51;0.92;75.68
13091;DHT22;6611;52.604;13.438;2023-01-29T00:51:55;1.03;75.09
13091;DHT22;6611;52.604;13.438;2023-01-29T00:57:14;1.08;75.03
13091;DHT22;6611;52.604;13.438;2023-01-29T01:02:16;0.97;74.83
13091;DHT22;6611;52.604;13.438;2023-01-29T01:07:36;0.97;75.23
13091;DHT22;6611;52.604;13.438;2023-01-29T01:12:38;0.93;75.84
13091;DHT22;6611;52.604;13.438;2023-01-29T01:17:40;1.01;75.68
13091;DHT22;6611;52.604;13.438;2023-01-29T01:22:43;1.00;76.07
13091;DHT22;6611;52.604;13.438;2023-01-29T01:27:44;1.03;75.68
13091;DHT22;6611;52.604;13.438;2023-01-29T01:32:47;0.87;76.21
13091;DHT22;6611;52.604;13.438;2023-01-29T01:37:50;0.82;76.66
13091;DHT22;6611;52.604;13.438;2023-01-29T01:42:52;0.89;76.87
13091;DHT22;6611;52.604;13.438;2023-01-29T01:47:58;0.96;76.78
13091;DHT22;6611;52.604;13.438;2023-01-29T01:53:06;0.95;76.55
13091;DHT22;6611;52.604;13.438;2023-01-29T01:58:12;1.10;76.49
13091;DHT22;6611;52.604;13.438;2023-01-29T02:03:16;1.10;76.45
13091;DHT22;6611;52.604;13.438;2023-01-29T02:08:42;1.08;77.04
13091;DHT22;6611;52.604;13.438;2023-01-29T02:14:03;1.16;76.63
13091;DHT22;6611;52.604;13.438;2023-01-29T02:19:12;1.21;76.32
13091;DHT22;6611;52.604;13.438;2023-01-29T02:25:00;1.11;76.72
13091;DHT22;6611;52.604;13.438;2023-01-29T02:30:14;1.14;76.66
13091;DHT22;6611;52.604;13.438;2023-01-29T02:35:23;1.10;77.12
13091;DHT22;6611;52.604;13.438;2023-01-29T02:40:30;1.14;76.89
13091;DHT22;6611;52.604;13.438;2023-01-29T02:45:42;1.14;76.86
13091;DHT22;6611;52.604;13.438;2023-01-29T02:50:49;1.04;77.31
13091;DHT22;6611;52.604;13.438;2023-01-29T02:55:59;1.16;77.50
13091;DHT22;6611;52.604;13.438;2023-01-29T03:01:08;1.20;77.38
13091;DHT22;6611;52.604;13.438;2023-01-29T03:06:14;1.11;78.31
13091;DHT22;6611;52.604;13.438;2023-01-29T03:11:21;1.16;78.25
13091;DHT22;6611;52.604;13.438;2023-01-29T03:16:30;1.20;78.04
13091;DHT22;6611;52.604;13.438;2023-01-29T03:21:38;1.31;77.94
13091;DHT22;6611;52.604;13.438;2023-01-29T03:27:02;1.21;78.66
13091;DHT22;6611;52.604;13.438;2023-01-29T03:32:24;1.37;78.28
13091;DHT22;6611;52.604;13.438;2023-01-29T03:37:32;1.38;78.10
13091;DHT22;6611;52.604;13.438;2023-01-29T03:42:43;1.34;78.52
13091;DHT22;6611;52.604;13.438;2023-01-29T03:47:57;1.35;78.46
13091;DHT22;6611;52.604;13.438;2023-01-29T03:53:07;1.28;78.85
13091;DHT22;6611;52.604;13.438;2023-01-29T03:58:20;1.32;78.99
13091;DHT22;6611;52.604;13.438;2023-01-29T04:03:32;1.28;79.86
13091;DHT22;6611;52.604;13.438;2023-01-29T04:08:38;1.26;80.26
13091;DHT22;6611;52.604;13.438;2023-01-29T04:13:41;1.14;81.65
13091;DHT22;6611;52.604;13.438;2023-01-29T04:18:46;1.27;81.60
13091;DHT22;6611;52.604;13.438;2023-01-29T04:23:48;1.23;81.91
13091;DHT22;6611;52.604;13.438;2023-01-29T04:28:58;1.28;81.73
13091;DHT22;6611;52.604;13.438;2023-01-29T04:34:07;1.21;82.39
13091;DHT22;6611;52.604;13.438;2023-01-29T04:39:17;1.24;83.15
13091;DHT22;6611;52.604;13.438;2023-01-29T04:44:26;1.32;83.76
13091;DHT22;6611;52.604;13.438;2023-01-29T04:49:34;1.27;84.36
13091;DHT22;6611;52.604;13.438;2023-01-29T04:54:52;1.20;84.84
13091;DHT22;6611;52.604;13.438;2023-01-29T05:00:02;1.17;85.48
13091;DHT22;6611;52.604;13.438;2023-01-29T05:05:08;1.26;85.56
13091;DHT22;6611;52.604;13.438;2023-01-29T05:10:13;1.24;85.77
13091;DHT22;6611;52.604;13.438;2023-01-29T05:15:21;1.23;86.05
13091;DHT22;6611;52.604;13.438;2023-01-29T05:20:25;1.24;85.97
13091;DHT22;6611;52.604;13.438;2023-01-29T05:25:29;1.23;85.73
13091;DHT22;6611;52.604;13.438;2023-01-29T05:30:33;1.23;85.70
13091;DHT22;6611;52.604;13.438;2023-01-29T05:35:37;1.21;86.04
13091;DHT22;6611;52.604;13.438;2023-01-29T05:40:38;1.19;85.94
13091;DHT22;6611;52.604;13.438;2023-01-29T05:45:40;1.21;85.90
13091;DHT22;6611;52.604;13.438;2023-01-29T05:50:43;1.24;85.86
13091;DHT22;6611;52.604;13.438;2023-01-29T05:55:45;1.32;85.41
13091;DHT22;6611;52.604;13.438;2023-01-29T06:00:47;1.39;85.06
13091;DHT22;6611;52.604;13.438;2023-01-29T06:05:50;1.32;85.53
13091;DHT22;6611;52.604;13.438;2023-01-29T06:10:52;1.34;85.37
13091;DHT22;6611;52.604;13.438;2023-01-29T06:15:53;1.31;85.60
13091;DHT22;6611;52.604;13.438;2023-01-29T06:20:59;1.35;85.61
13091;DHT22;6611;52.604;13.438;2023-01-29T06:26:02;1.37;85.72
13091;DHT22;6611;52.604;13.438;2023-01-29T06:31:05;1.37;85.67
13091;DHT22;6611;52.604;13.438;2023-01-29T06:36:09;1.31;85.84
13091;DHT22;6611;52.604;13.438;2023-01-29T06:41:11;1.28;86.31
13091;DHT22;6611;52.604;13.438;2023-01-29T06:46:14;1.32;86.30
13091;DHT22;6611;52.604;13.438;2023-01-29T06:51:17;1.31;86.26
13091;DHT22;6611;52.604;13.438;2023-01-29T06:56:20;1.35;86.31
13091;DHT22;6611;52.604;13.438;2023-01-29T07:01:22;1.23;86.54
13091;DHT22;6611;52.604;13.438;2023-01-29T07:06:28;1.28;86.56
13091;DHT22;6611;52.604;13.438;2023-01-29T07:11:29;1.41;86.19
13091;DHT22;6611;52.604;13.438;2023-01-29T07:16:31;1.34;86.52
13091;DHT22;6611;52.604;13.438;2023-01-29T07:21:34;1.34;86.72
13091;DHT22;6611;52.604;13.438;2023-01-29T07:26:37;1.37;86.78
13091;DHT22;6611;52.604;13.438;2023-01-29T07:31:38;1.34;86.96
13091;DHT22;6611;52.604;13.438;2023-01-29T07:36:41;1.35;86.80
13091;DHT22;6611;52.604;13.438;2023-01-29T07:41:43;1.52;86.33
13091;DHT22;6611;52.604;13.438;2023-01-29T07:46:45;1.49;86.44
13091;DHT22;6611;52.604;13.438;2023-01-29T07:51:48;1.55;86.30
13091;DHT22;6611;52.604;13.438;2023-01-29T07:56:49;1.62;86.11
13091;DHT22;6611;52.604;13.438;2023-01-29T08:01:51;1.66;86.24
13091;DHT22;6611;52.604;13.438;2023-01-29T08:06:54;1.69;86.12
13091;DHT22;6611;52.604;13.438;2023-01-29T08:11:56;1.86;86.65
13091;DHT22;6611;52.604;13.438;2023-01-29T08:16:58;2.04;86.17
13091;DHT22;6611;52.604;13.438;2023-01-29T08:22:01;2.20;85.31
13091;DHT22;6611;52.604;13.438;2023-01-29T08:27:02;2.03;85.79
13091;DHT22;6611;52.604;13.438;2023-01-29T08:32:04;2.29;85.99
13091;DHT22;6611;52.604;13.438;2023-01-29T08:37:10;2.45;84.81
13091;DHT22;6611;52.604;13.438;2023-01-29T08:42:12;2.25;85.05
13091;DHT22;6611;52.604;13.438;2023-01-29T08:47:14;2.28;86.05
13091;DHT22;6611;52.604;13.438;2023-01-29T08:52:17;2.42;85.74
13091;DHT22;6611;52.604;13.438;2023-01-29T08:57:18;2.27;85.68
13091;DHT22;6611;52.604;13.438;2023-01-29T09:02:20;2.42;85.32
13091;DHT22;6611;52.604;13.438;2023-01-29T09:07:23;2.31;85.19
13091;DHT22;6611;52.604;13.438;2023-01-29T09:12:25;2.42;85.79
13091;DHT22;6611;52.604;13.438;2023-01-29T09:17:27;2.41;85.41
13091;DHT22;6611;52.604;13.438;2023-01-29T09:22:30;2.57;86.05
13091;DHT22;6611;52.604;13.438;2023-01-29T09:27:32;2.46;85.46
13091;DHT22;6611;52.604;13.438;2023-01-29T09:32:34;2.44;85.44
13091;DHT22;6611;52.604;13.438;2023-01-29T09:37:37;2.46;86.18
13091;DHT22;6611;52.604;13.438;2023-01-29T09:42:43;2.45;86.20
13091;DHT22;6611;52.604;13.438;2023-01-29T09:47:48;2.56;85.45
13091;DHT22;6611;52.604;13.438;2023-01-29T09:52:54;2.59;85.50
13091;DHT22;6611;52.604;13.438;2023-01-29T09:57:58;2.62;85.26
13091;DHT22;6611;52.604;13.438;2023-01-29T10:03:23;2.75;84.74
13091;DHT22;6611;52.604;13.438;2023-01-29T10:09:00;2.73;84.72
13091;DHT22;6611;52.604;13.438;2023-01-29T10:14:14;3.03;85.33
13091;DHT22;6611;52.604;13.438;2023-01-29T10:19:35;3.98;81.60
13091;DHT22;6611;52.604;13.438;2023-01-29T10:24:48;3.63;81.37
13091;DHT22;6611;52.604;13.438;2023-01-29T10:29:54;3.36;81.41
13091;DHT22;6611;52.604;13.438;2023-01-29T10:34:58;3.15;82.41
13091;DHT22;6611;52.604;13.438;2023-01-29T10:40:16;3.28;81.90
13091;DHT22;6611;52.604;13.438;2023-01-29T10:45:27;3.36;81.83
13091;DHT22;6611;52.604;13.438;2023-01-29T10:50:40;3.58;81.75
13091;DHT22;6611;52.604;13.438;2023-01-29T10:55:53;3.77;80.70
13091;DHT22;6611;52.604;13.438;2023-01-29T11:00:57;3.84;79.84
13091;DHT22;6611;52.604;13.438;2023-01-29T11:06:07;3.73;80.01
13091;DHT22;6611;52.604;13.438;2023-01-29T11:11:14;3.84;79.66
13091;DHT22;6611;52.604;13.438;2023-01-29T11:16:16;3.99;79.76
13091;DHT22;6611;52.604;13.438;2023-01-29T11:21:18;3.88;78.96
13091;DHT22;6611;52.604;13.438;2023-01-29T11:26:22;4.02;79.04
13091;DHT22;6611;52.604;13.438;2023-01-29T11:31:24;4.16;77.96
13091;DHT22;6611;52.604;13.438;2023-01-29T11:36:30;4.26;78.70
13091;DHT22;6611;52.604;13.438;2023-01-29T11:41:43;4.45;77.65
13091;DHT22;6611;52.604;13.438;2023-01-29T11:46:45;4.56;76.67
13091;DHT22;6611;52.604;13.438;2023-01-29T11:51:51;4.46;76.39
13091;DHT22;6611;52.604;13.438;2023-01-29T11:56:55;4.46;76.49
13091;DHT22;6611;52.604;13.438;2023-01-29T12:02:04;4.38;75.79
13091;DHT22;6611;52.604;13.438;2023-01-29T12:07:12;4.40;76.26
13091;DHT22;6611;52.604;13.438;2023-01-29T12:12:29;4.50;76.40
13091;DHT22;6611;52.604;13.438;2023-01-29T12:17:32;4.56;76.00
13091;DHT22;6611;52.604;13.438;2023-01-29T12:22:40;4.56;76.38
13091;DHT22;6611;52.604;13.438;2023-01-29T12:27:47;4.61;76.98
13091;DHT22;6611;52.604;13.438;2023-01-29T12:32:55;4.52;75.73
13091;DHT22;6611;52.604;13.438;2023-01-29T12:38:02;4.50;76.18
13091;DHT22;6611;52.604;13.438;2023-01-29T12:43:14;4.31;75.83
13091;DHT22;6611;52.604;13.438;2023-01-29T12:48:20;4.16;76.84
13091;DHT22;6611;52.604;13.438;2023-01-29T12:53:25;4.25;76.87
13091;DHT22;6611;52.604;13.438;2023-01-29T12:58:32;4.25;76.99
13091;DHT22;6611;52.604;13.438;2023-01-29T13:03:46;4.25;77.08
13091;DHT22;6611;52.604;13.438;2023-01-29T13:08:51;4.32;76.81
13091;DHT22;6611;52.604;13.438;2023-01-29T13:13:58;4.16;76.95
13091;DHT22;6611;52.604;13.438;2023-01-29T13:19:04;4.19;77.04
13091;DHT22;6611;52.604;13.438;2023-01-29T13:24:11;4.26;76.89
13091;DHT22;6611;52.604;13.438;2023-01-29T13:29:26;4.19;76.91
13091;DHT22;6611;52.604;13.438;2023-01-29T13:34:29;4.15;76.87
13091;DHT22;6611;52.604;13.438;2023-01-29T13:39:33;4.09;77.76
13091;DHT22;6611;52.604;13.438;2023-01-29T13:44:38;4.14;76.76
13091;DHT22;6611;52.604;13.438;2023-01-29T13:49:42;4.08;77.67
13091;DHT22;6611;52.604;13.438;2023-01-29T13:54:56;3.99;77.73
13091;DHT22;6611;52.604;13.438;2023-01-29T14:00:01;4.04;77.85
13091;DHT22;6611;52.604;13.438;2023-01-29T14:05:37;3.93;77.78
13091;DHT22;6611;52.604;13.438;2023-01-29T14:10:41;3.90;78.14
13091;DHT22;6611;52.604;13.438;2023-01-29T14:15:45;3.87;78.92
13091;DHT22;6611;52.604;13.438;2023-01-29T14:20:56;3.90;79.14
13091;DHT22;6611;52.604;13.438;2023-01-29T14:26:01;3.78;79.77
13091;DHT22;6611;52.604;13.438;2023-01-29T14:31:05;3.78;80.69
13091;DHT22;6611;52.604;13.438;2023-01-29T14:36:11;3.84;80.88
13091;DHT22;6611;52.604;13.438;2023-01-29T14:41:19;3.66;81.65
13091;DHT22;6611;52.604;13.438;2023-01-29T14:46:44;3.45;83.00
13091;DHT22;6611;52.604;13.438;2023-01-29T14:51:46;3.40;83.77
13091;DHT22;6611;52.604;13.438;2023-01-29T14:56:55;3.38;84.65
13091;DHT22;6611;52.604;13.438;2023-01-29T15:02:04;3.40;84.56
13091;DHT22;6611;52.604;13.438;2023-01-29T15:07:24;3.25;84.89
13091;DHT22;6611;52.604;13.438;2023-01-29T15:12:31;3.18;85.34
13091;DHT22;6611;52.604;13.438;2023-01-29T15:17:40;3.12;85.68
13091;DHT22;6611;52.604;13.438;2023-01-29T15:22:43;3.08;85.95
13091;DHT22;6611;52.604;13.438;2023-01-29T15:27:45;3.04;85.78
13091;DHT22;6611;52.604;13.438;2023-01-29T15:32:48;3.07;85.64
13091;DHT22;6611;52.604;13.438;2023-01-29T15:37:57;2.96;85.84
13091;DHT22;6611;52.604;13.438;2023-01-29T15:42:59;3.03;85.76
13091;DHT22;6611;52.604;13.438;2023-01-29T15:48:05;3.01;85.83
13091;DHT22;6611;52.604;13.438;2023-01-29T15:53:12;2.94;85.89
13091;DHT22;6611;52.604;13.438;2023-01-29T15:58:18;2.89;86.03
13091;DHT22;6611;52.604;13.438;2023-01-29T16:03:24;2.94;85.70
13091;DHT22;6611;52.604;13.438;2023-01-29T16:08:27;2.93;85.43
13091;DHT22;6611;52.604;13.438;2023-01-29T16:13:30;2.93;85.58
13091;DHT22;6611;52.604;13.438;2023-01-29T16:18:36;3.00;84.95
13091;DHT22;6611;52.604;13.438;2023-01-29T16:23:40;2.97;85.04
13091;DHT22;6611;52.604;13.438;2023-01-29T16:28:43;2.93;84.55
13091;DHT22;6611;52.604;13.438;2023-01-29T16:33:47;2.94;84.54
13091;DHT22;6611;52.604;13.438;2023-01-29T16:38:50;2.93;84.25
13091;DHT22;6611;52.604;13.438;2023-01-29T16:43:53;3.00;84.04
13091;DHT22;6611;52.604;13.438;2023-01-29T16:48:58;3.24;83.61
13091;DHT22;6611;52.604;13.438;2023-01-29T16:54:06;3.31;83.66
13091;DHT22;6611;52.604;13.438;2023-01-29T16:59:15;3.51;83.06
13091;DHT22;6611;52.604;13.438;2023-01-29T17:04:19;3.43;82.29
13091;DHT22;6611;52.604;13.438;2023-01-29T17:09:23;3.51;83.47
13091;DHT22;6611;52.604;13.438;2023-01-29T17:14:25;3.69;82.35
13091;DHT22;6611;52.604;13.438;2023-01-29T17:19:31;3.81;80.88
13091;DHT22;6611;52.604;13.438;2023-01-29T17:24:33;3.70;80.17
13091;DHT22;6611;52.604;13.438;2023-01-29T17:29:35;3.48;80.22
13091;DHT22;6611;52.604;13.438;2023-01-29T17:34:38;3.21;81.15
13091;DHT22;6611;52.604;13.438;2023-01-29T17:39:40;3.21;80.58
13091;DHT22;6611;52.604;13.438;2023-01-29T17:44:42;3.05;81.21
13091;DHT22;6611;52.604;13.438;2023-01-29T17:49:46;3.03;81.51
13091;DHT22;6611;52.604;13.438;2023-01-29T17:54:47;3.07;81.46
13091;DHT22;6611;52.604;13.438;2023-01-29T17:59:49;3.04;81.57
13091;DHT22;6611;52.604;13.438;2023-01-29T18:04:52;3.09;81.39
13091;DHT22;6611;52.604;13.438;2023-01-29T18:09:54;3.05;81.23
13091;DHT22;6611;52.604;13.438;2023-01-29T18:14:56;3.01;81.80
13091;DHT22;6611;52.604;13.438;2023-01-29T18:19:59;3.01;81.59
13091;DHT22;6611;52.604;13.438;2023-01-29T18:25:01;2.93;81.73
13091;DHT22;6611;52.604;13.438;2023-01-29T18:30:04;2.98;81.77
13091;DHT22;6611;52.604;13.438;2023-01-29T18:35:08;2.93;81.59
13091;DHT22;6611;52.604;13.438;2023-01-29T18:40:11;2.96;81.71
13091;DHT22;6611;52.604;13.438;2023-01-29T18:45:13;2.96;81.60
13091;DHT22;6611;52.604;13.438;2023-01-29T18:50:17;2.91;81.76
13091;DHT22;6611;52.604;13.438;2023-01-29T18:55:19;2.86;81.78
13091;DHT22;6611;52.604;13.438;2023-01-29T19:00:21;2.90;81.65
13091;DHT22;6611;52.604;13.438;2023-01-29T19:05:25;2.84;81.99
13091;DHT22;6611;52.604;13.438;2023-01-29T19:10:27;2.79;81.70
13091;DHT22;6611;52.604;13.438;2023-01-29T19:15:28;2.79;81.48
13091;DHT22;6611;52.604;13.438;2023-01-29T19:20:31;2.75;81.90
13091;DHT22;6611;52.604;13.438;2023-01-29T19:25:35;2.76;81.88
13091;DHT22;6611;52.604;13.438;2023-01-29T19:30:37;2.79;82.31
13091;DHT22;6611;52.604;13.438;2023-01-29T19:35:44;2.57;83.41
13091;DHT22;6611;52.604;13.438;2023-01-29T19:40:46;2.52;83.96
13091;DHT22;6611;52.604;13.438;2023-01-29T19:45:47;2.52;84.24
13091;DHT22;6611;52.604;13.438;2023-01-29T19:50:52;2.56;83.64
13091;DHT22;6611;52.604;13.438;2023-01-29T19:55:58;2.63;83.23
13091;DHT22;6611;52.604;13.438;2023-01-29T20:01:02;2.66;82.49
13091;DHT22;6611;52.604;13.438;2023-01-29T20:06:06;2.69;82.57
13091;DHT22;6611;52.604;13.438;2023-01-29T20:11:08;2.79;81.83
13091;DHT22;6611;52.604;13.438;2023-01-29T20:16:10;2.72;81.81
13091;DHT22;6611;52.604;13.438;2023-01-29T20:21:15;2.62;81.89
13091;DHT22;6611;52.604;13.438;2023-01-29T20:26:17;2.57;82.80
13091;DHT22;6611;52.604;13.438;2023-01-29T20:31:19;2.46;82.99
13091;DHT22;6611;52.604;13.438;2023-01-29T20:36:22;2.49;82.40
13091;DHT22;6611;52.604;13.438;2023-01-29T20:41:24;2.59;82.16
13091;DHT22;6611;52.604;13.438;2023-01-29T20:46:26;2.59;81.73
13091;DHT22;6611;52.604;13.438;2023-01-29T20:51:29;2.57;81.54
13091;DHT22;6611;52.604;13.438;2023-01-29T20:56:31;2.57;81.68
13091;DHT22;6611;52.604;13.438;2023-01-29T21:01:32;2.60;81.77
13091;DHT22;6611;52.604;13.438;2023-01-29T21:06:35;2.66;81.47
13091;DHT22;6611;52.604;13.438;2023-01-29T21:11:37;2.64;81.23
13091;DHT22;6611;52.604;13.438;2023-01-29T21:16:39;2.66;81.51
13091;DHT22;6611;52.604;13.438;2023-01-29T21:21:42;2.69;81.69
13091;DHT22;6611;52.604;13.438;2023-01-29T21:26:43;2.60;82.42
13091;DHT22;6611;52.604;13.438;2023-01-29T21:31:45;2.66;82.10
13091;DHT22;6611;52.604;13.438;2023-01-29T21:36:48;2.69;81.82
13091;DHT22;6611;52.604;13.438;2023-01-29T21:41:50;2.62;81.67
13091;DHT22;6611;52.604;13.438;2023-01-29T21:47:10;2.67;81.43
13091;DHT22;6611;52.604;13.438;2023-01-29T21:52:14;2.67;81.02
13091;DHT22;6611;52.604;13.438;2023-01-29T21:57:16;2.64;81.10
13091;DHT22;6611;52.604;13.438;2023-01-29T22:02:18;2.66;80.81
13091;DHT22;6611;52.604;13.438;2023-01-29T22:07:21;2.66;81.03
13091;DHT22;6611;52.604;13.438;2023-01-29T22:12:23;2.66;80.70
13091;DHT22;6611;52.604;13.438;2023-01-29T22:17:25;2.81;80.51
13091;DHT22;6611;52.604;13.438;2023-01-29T22:22:28;2.76;80.57
13091;DHT22;6611;52.604;13.438;2023-01-29T22:27:31;2.77;80.34
13091;DHT22;6611;52.604;13.438;2023-01-29T22:32:33;2.66;80.50
13091;DHT22;6611;52.604;13.438;2023-01-29T22:37:36;2.76;80.48
13091;DHT22;6611;52.604;13.438;2023-01-29T22:42:37;2.70;80.48
13091;DHT22;6611;52.604;13.438;2023-01-29T22:47:39;2.72;80.35
13091;DHT22;6611;52.604;13.438;2023-01-29T22:52:42;2.72;79.93
13091;DHT22;6611;52.604;13.438;2023-01-29T22:57:52;2.69;80.37
13091;DHT22;6611;52.604;13.438;2023-01-29T23:02:54;2.75;79.44
13091;DHT22;6611;52.604;13.438;2023-01-29T23:07:57;2.72;79.22
13091;DHT22;6611;52.604;13.438;2023-01-29T23:12:59;2.77;79.31
13091;DHT22;6611;52.604;13.438;2023-01-29T23:18:01;2.79;78.68
13091;DHT22;6611;52.604;13.438;2023-01-29T23:23:04;2.76;79.11
13091;DHT22;6611;52.604;13.438;2023-01-29T23:28:06;2.75;78.55
13091;DHT22;6611;52.604;13.438;2023-01-29T23:33:08;2.79;78.88
13091;DHT22;6611;52.604;13.438;2023-01-29T23:38:10;2.76;77.86
13091;DHT22;6611;52.604;13.438;2023-01-29T23:43:12;2.66;78.81
13091;DHT22;6611;52.604;13.438;2023-01-29T23:48:14;2.73;78.14
13091;DHT22;6611;52.604;13.438;2023-01-29T23:53:17;2.77;78.03
13091;DHT22;6611;52.604;13.438;2023-01-29T23:58:19;2.79;78.04
